createdAt,value
2018-04-25T08:51:55.429Z,24.22
2018-04-25T08:54:22.084Z,24.06
2018-04-25T08:56:48.578Z,23.91
2018-04-25T08:59:15.017Z,23.96
2018-04-25T09:01:41.429Z,24.14
2018-04-25T09:04:07.854Z,24.26
2018-04-25T09:06:34.268Z,24.33
2018-04-25T09:09:00.669Z,24.45
2018-04-25T09:11:27.062Z,24.44
2018-04-25T09:13:53.461Z,24.52
2018-04-25T09:16:20.823Z,24.68
2018-04-25T09:18:47.234Z,24.76
2018-04-25T09:21:13.625Z,24.75
2018-04-25T09:23:40.120Z,24.81
2018-04-25T09:26:06.503Z,25.01
2018-04-25T09:28:32.906Z,25.18
2018-04-25T09:30:59.498Z,25.27
2018-04-25T09:33:26.469Z,25.42
2018-04-25T09:35:53.043Z,25.47
2018-04-25T09:38:19.445Z,25.57
2018-04-25T09:40:45.857Z,25.67
2018-04-25T09:43:12.454Z,25.83
2018-04-25T09:45:38.950Z,25.76
2018-04-25T09:48:05.463Z,25.86
2018-04-25T09:50:32.079Z,25.94
2018-04-25T09:52:58.480Z,25.96
2018-04-25T09:55:25.088Z,25.81
2018-04-25T09:57:51.610Z,25.79
2018-04-25T10:00:18.207Z,25.83
2018-04-25T10:02:44.839Z,25.75
2018-04-25T10:05:11.205Z,25.80
2018-04-25T10:07:37.667Z,25.89
2018-04-25T10:10:04.083Z,25.90
2018-04-25T10:12:30.609Z,25.96
2018-04-25T10:14:57.052Z,25.98
2018-04-25T10:17:23.585Z,26.00
2018-04-25T10:19:50.216Z,26.14
2018-04-25T10:22:16.606Z,26.11
2018-04-25T10:24:42.985Z,26.19
2018-04-25T10:27:09.366Z,26.23
2018-04-25T10:29:35.797Z,26.32
2018-04-25T10:32:02.364Z,26.30
2018-04-25T10:34:28.779Z,26.17
2018-04-25T10:36:55.550Z,26.11
2018-04-25T10:39:21.912Z,26.13
2018-04-25T10:41:48.534Z,26.17
2018-04-25T10:44:15.043Z,26.32
2018-04-25T10:46:41.359Z,26.38
2018-04-25T10:49:07.770Z,26.46
2018-04-25T10:51:34.419Z,26.62
2018-04-25T10:54:00.811Z,26.75
2018-04-25T10:56:27.296Z,26.70
2018-04-25T10:58:53.665Z,26.75
2018-04-25T11:01:20.107Z,26.78
2018-04-25T11:03:46.597Z,26.81
2018-04-25T11:06:12.974Z,26.72
2018-04-25T11:08:39.425Z,26.67
2018-04-25T11:11:05.970Z,26.81
2018-04-25T11:13:32.348Z,26.63
2018-04-25T11:16:03.886Z,26.61
2018-04-25T11:18:31.490Z,26.68
2018-04-25T11:20:58.629Z,26.75
2018-04-25T11:23:27.080Z,26.85
2018-04-25T11:25:53.810Z,26.86
2018-04-25T11:28:20.293Z,26.84
2018-04-25T11:30:46.770Z,27.00
2018-04-25T11:33:13.179Z,27.04
2018-04-25T11:35:39.584Z,27.07
2018-04-25T11:38:06.030Z,27.04
2018-04-25T11:40:32.425Z,27.06
2018-04-25T11:42:58.806Z,27.06
2018-04-25T11:45:25.178Z,27.15
2018-04-25T11:47:51.744Z,27.11
2018-04-25T11:50:18.318Z,27.19
2018-04-25T11:52:44.750Z,27.27
2018-04-25T11:55:11.141Z,27.18
2018-04-25T11:57:37.578Z,27.16
2018-04-25T12:00:03.997Z,27.14
2018-04-25T12:02:30.432Z,27.21
2018-04-25T12:04:56.935Z,27.17
2018-04-25T12:07:23.321Z,27.15
2018-04-25T12:09:49.737Z,27.11
2018-04-25T12:12:16.376Z,27.05
2018-04-25T12:14:43.005Z,27.14
2018-04-25T12:17:09.409Z,27.15
2018-04-25T12:19:35.881Z,27.11
2018-04-25T12:22:02.484Z,27.09
2018-04-25T12:24:29.029Z,27.00
2018-04-25T12:26:55.435Z,26.93
2018-04-25T12:29:21.856Z,27.14
2018-04-25T12:31:48.482Z,27.21
2018-04-25T12:34:14.961Z,27.32
2018-04-25T12:36:41.323Z,27.36
2018-04-25T12:39:07.758Z,27.30
2018-04-25T12:41:34.227Z,27.36
2018-04-25T12:44:00.672Z,27.47
2018-04-25T12:46:27.070Z,27.51
2018-04-25T12:48:53.481Z,27.59
2018-04-25T12:51:19.909Z,27.53
2018-04-25T12:53:46.365Z,27.49
2018-04-25T12:56:12.854Z,27.57
2018-04-25T12:58:39.326Z,27.57
2018-04-25T13:01:05.742Z,27.58
2018-04-25T13:03:32.166Z,27.66
2018-04-25T13:05:58.726Z,27.55
2018-04-25T13:08:25.118Z,27.74
2018-04-25T13:10:51.470Z,27.83
2018-04-25T13:13:17.959Z,27.96
2018-04-25T13:15:44.363Z,27.98
2018-04-25T13:18:11.319Z,27.98
2018-04-25T13:20:37.812Z,27.89
2018-04-25T13:23:04.234Z,27.84
2018-04-25T13:25:30.843Z,27.80
2018-04-25T13:27:57.287Z,27.83
2018-04-25T13:30:23.703Z,27.87
2018-04-25T13:32:50.216Z,27.82
2018-04-25T13:35:16.623Z,27.75
2018-04-25T13:37:43.159Z,27.70
2018-04-25T13:40:09.497Z,27.82
2018-04-25T13:42:35.911Z,27.77
2018-04-25T13:45:02.332Z,27.84
2018-04-25T13:47:28.804Z,27.91
2018-04-25T13:49:55.248Z,27.72
2018-04-25T13:52:21.588Z,27.76
2018-04-25T13:54:47.944Z,27.77
2018-04-25T13:57:14.353Z,27.76
2018-04-25T13:59:40.857Z,27.75
2018-04-25T14:02:07.272Z,27.69
2018-04-25T14:04:34.002Z,27.64
2018-04-25T14:07:00.435Z,27.67
2018-04-25T14:09:29.871Z,27.73
2018-04-25T14:11:57.671Z,27.78
2018-04-25T14:14:24.101Z,27.76
2018-04-25T14:16:50.493Z,27.77
2018-04-25T14:19:16.881Z,27.80
2018-04-25T14:21:43.294Z,27.81
2018-04-25T14:24:09.654Z,27.83
2018-04-25T14:26:36.086Z,27.82
2018-04-25T14:29:02.689Z,27.80
2018-04-25T14:31:29.059Z,27.78
2018-04-25T14:33:55.494Z,27.76
2018-04-25T14:36:22.299Z,27.75
2018-04-25T14:38:48.783Z,27.81
2018-04-25T14:41:15.319Z,27.86
2018-04-25T14:43:41.786Z,27.85
2018-04-25T14:46:08.289Z,27.80
2018-04-25T14:48:34.702Z,27.76
2018-04-25T14:51:01.091Z,27.72
2018-04-25T14:53:27.590Z,27.72
2018-04-25T14:55:53.997Z,27.72
2018-04-25T14:58:20.394Z,27.70
2018-04-25T15:00:46.800Z,27.71
2018-04-25T15:03:13.220Z,27.68
2018-04-25T15:05:39.630Z,27.72
2018-04-25T15:08:06.168Z,27.69
2018-04-25T15:10:32.582Z,27.66
2018-04-25T15:12:59.058Z,27.62
2018-04-25T15:15:25.495Z,27.61
2018-04-25T15:17:52.078Z,27.56
2018-04-25T15:20:18.507Z,27.55
2018-04-25T15:22:45.020Z,27.53
2018-04-25T15:25:11.467Z,27.48
2018-04-25T15:27:38.465Z,27.41
2018-04-25T15:30:04.859Z,27.40
2018-04-25T15:32:31.278Z,27.36
2018-04-25T15:34:57.713Z,27.33
2018-04-25T15:37:24.369Z,27.34
2018-04-25T15:39:50.778Z,27.27
2018-04-25T15:42:17.246Z,27.31
2018-04-25T15:44:43.819Z,27.26
2018-04-25T15:47:11.316Z,27.25
2018-04-25T15:49:37.660Z,27.22
2018-04-25T15:52:04.104Z,27.16
2018-04-25T15:54:30.501Z,27.12
2018-04-25T15:56:56.882Z,27.09
2018-04-25T15:59:23.344Z,27.03
2018-04-25T16:01:49.846Z,27.02
2018-04-25T16:04:16.239Z,27.00
2018-04-25T16:06:42.611Z,26.95
2018-04-25T16:09:09.076Z,26.92
2018-04-25T16:11:35.611Z,26.88
2018-04-25T16:14:02.046Z,26.86
2018-04-25T16:16:28.447Z,26.84
2018-04-25T16:18:54.851Z,26.81
2018-04-25T16:21:21.222Z,26.77
2018-04-25T16:23:47.831Z,26.72
2018-04-25T16:26:14.520Z,26.71
2018-04-25T16:28:40.994Z,26.70
2018-04-25T16:31:07.429Z,26.70
2018-04-25T16:33:35.105Z,26.71
2018-04-25T16:36:03.002Z,26.65
2018-04-25T16:38:29.813Z,26.60
2018-04-25T16:40:56.250Z,26.47
2018-04-25T16:43:22.933Z,26.45
2018-04-25T16:45:50.391Z,26.40
2018-04-25T16:48:17.003Z,26.34
2018-04-25T16:50:43.463Z,26.31
2018-04-25T16:53:10.101Z,26.27
2018-04-25T16:55:36.637Z,26.20
2018-04-25T16:58:03.770Z,26.19
2018-04-25T17:00:30.562Z,26.10
2018-04-25T17:03:01.753Z,26.11
2018-04-25T17:05:28.517Z,26.07
2018-04-25T17:07:55.158Z,26.02
2018-04-25T17:10:21.587Z,26.01
2018-04-25T17:12:48.329Z,26.04
2018-04-25T17:15:15.171Z,26.00
2018-04-25T17:17:41.559Z,25.96
2018-04-25T17:20:07.935Z,25.89
2018-04-25T17:22:34.340Z,25.87
2018-04-25T17:25:00.833Z,25.88
2018-04-25T17:27:27.261Z,25.88
2018-04-25T17:29:53.774Z,25.80
2018-04-25T17:32:20.187Z,25.72
2018-04-25T17:34:46.566Z,25.71
2018-04-25T17:37:12.952Z,25.61
2018-04-25T17:39:39.687Z,25.54
2018-04-25T17:42:06.110Z,25.45
2018-04-25T17:44:32.502Z,25.39
2018-04-25T17:46:58.926Z,25.34
2018-04-25T17:49:25.309Z,25.27
2018-04-25T17:51:51.766Z,25.22
2018-04-25T17:54:18.390Z,25.15
2018-04-25T17:56:44.786Z,25.08
2018-04-25T17:59:11.431Z,24.98
2018-04-25T18:01:37.777Z,24.93
2018-04-25T18:04:04.142Z,24.87
2018-04-25T18:06:30.499Z,24.85
2018-04-25T18:08:56.926Z,24.83
2018-04-25T18:11:23.373Z,24.81
2018-04-25T18:13:49.762Z,24.79
2018-04-25T18:16:16.497Z,24.77
2018-04-25T18:18:43.106Z,24.79
2018-04-25T18:21:09.523Z,24.77
2018-04-25T18:23:36.112Z,24.77
2018-04-25T18:26:02.538Z,24.74
2018-04-25T18:28:28.971Z,24.68
2018-04-25T18:30:55.485Z,24.63
2018-04-25T18:33:21.878Z,24.57
2018-04-25T18:35:48.708Z,24.53
2018-04-25T18:38:15.243Z,24.49
2018-04-25T18:40:42.239Z,24.44
2018-04-25T18:43:08.598Z,24.40
2018-04-25T18:45:35.009Z,24.36
2018-04-25T18:48:02.418Z,24.29
2018-04-25T18:50:28.793Z,24.26
2018-04-25T18:52:55.180Z,24.21
2018-04-25T18:55:21.578Z,24.15
2018-04-25T18:57:48.163Z,24.13
2018-04-25T19:00:14.567Z,24.06
2018-04-25T19:02:41.115Z,24.02
2018-04-25T19:05:07.522Z,23.98
2018-04-25T19:07:33.891Z,23.91
2018-04-25T19:10:00.346Z,23.85
2018-04-25T19:12:26.745Z,23.78
2018-04-25T19:14:53.131Z,23.73
2018-04-25T19:17:19.533Z,23.72
2018-04-25T19:19:45.893Z,23.66
2018-04-25T19:22:12.335Z,23.62
2018-04-25T19:24:38.735Z,23.61
2018-04-25T19:27:05.094Z,23.54
2018-04-25T19:29:31.493Z,23.53
2018-04-25T19:31:57.950Z,23.51
2018-04-25T19:34:24.370Z,23.48
2018-04-25T19:36:50.772Z,23.40
2018-04-25T19:39:17.178Z,23.31
2018-04-25T19:41:43.614Z,23.12
2018-04-25T19:44:10.176Z,23.06
2018-04-25T19:46:36.546Z,23.02
2018-04-25T19:49:03.102Z,22.93
2018-04-25T19:51:29.579Z,22.94
2018-04-25T19:53:55.995Z,22.88
2018-04-25T19:56:22.415Z,22.79
2018-04-25T19:58:48.776Z,22.67
2018-04-25T20:01:15.147Z,22.55
2018-04-25T20:03:41.530Z,22.48
2018-04-25T20:06:08.027Z,22.26
2018-04-25T20:08:34.457Z,22.05
2018-04-25T20:11:00.950Z,22.08
2018-04-25T20:13:27.410Z,22.15
2018-04-25T20:15:53.891Z,22.14
2018-04-25T20:18:28.475Z,22.13
2018-04-25T20:20:54.870Z,22.09
2018-04-25T20:23:21.233Z,22.08
2018-04-25T20:25:47.594Z,22.04
2018-04-25T20:28:14.041Z,22.05
2018-04-25T20:30:40.399Z,21.96
2018-04-25T20:33:06.815Z,21.96
2018-04-25T20:35:33.175Z,21.94
2018-04-25T20:37:59.573Z,21.91
2018-04-25T20:40:25.999Z,21.83
2018-04-25T20:42:52.347Z,21.85
2018-04-25T20:45:18.828Z,21.83
2018-04-25T20:47:45.286Z,21.72
2018-04-25T20:50:11.690Z,21.68
2018-04-25T20:52:38.130Z,21.62
2018-04-25T20:55:04.602Z,21.57
2018-04-25T20:57:31.003Z,21.45
2018-04-25T20:59:57.535Z,21.50
2018-04-25T21:02:23.915Z,21.46
2018-04-25T21:04:50.321Z,21.43
2018-04-25T21:07:16.804Z,21.32
2018-04-25T21:09:43.229Z,21.32
2018-04-25T21:12:09.617Z,21.34
2018-04-25T21:14:36.026Z,21.24
2018-04-25T21:17:02.407Z,21.25
2018-04-25T21:19:28.822Z,21.23
2018-04-25T21:21:55.225Z,21.17
2018-04-25T21:24:21.669Z,21.13
2018-04-25T21:26:48.117Z,21.13
2018-04-25T21:29:14.598Z,21.14
2018-04-25T21:31:40.998Z,21.02
2018-04-25T21:34:07.414Z,21.02
2018-04-25T21:36:33.816Z,20.97
2018-04-25T21:39:00.217Z,20.98
2018-04-25T21:41:26.684Z,21.03
2018-04-25T21:43:53.232Z,20.92
2018-04-25T21:46:19.607Z,20.95
2018-04-25T21:48:46.043Z,20.98
2018-04-25T21:51:12.503Z,21.05
2018-04-25T21:53:39.037Z,21.09
2018-04-25T21:56:05.468Z,21.11
2018-04-25T21:58:31.826Z,21.11
2018-04-25T22:00:58.257Z,21.11
2018-04-25T22:03:24.705Z,21.12
2018-04-25T22:05:51.111Z,21.13
2018-04-25T22:08:17.638Z,21.11
2018-04-25T22:10:44.048Z,21.14
2018-04-25T22:13:10.530Z,21.11
2018-04-25T22:15:36.913Z,21.09
2018-04-25T22:18:03.309Z,21.00
2018-04-25T22:20:29.676Z,20.98
2018-04-25T22:22:56.074Z,20.92
2018-04-25T22:25:22.466Z,20.84
2018-04-25T22:27:48.885Z,20.87
2018-04-25T22:30:15.491Z,20.79
2018-04-25T22:32:41.911Z,20.75
2018-04-25T22:35:08.299Z,20.60
2018-04-25T22:37:34.792Z,20.41
2018-04-25T22:40:01.202Z,20.41
2018-04-25T22:42:27.660Z,20.36
2018-04-25T22:44:54.165Z,20.42
2018-04-25T22:47:20.501Z,20.15
2018-04-25T22:49:46.944Z,20.15
2018-04-25T22:52:13.337Z,20.14
2018-04-25T22:54:39.696Z,20.01
2018-04-25T22:57:06.134Z,20.08
2018-04-25T22:59:32.502Z,20.00
2018-04-25T23:01:59.049Z,20.06
2018-04-25T23:04:25.403Z,19.88
2018-04-25T23:06:51.742Z,19.94
2018-04-25T23:09:18.403Z,20.00
2018-04-25T23:11:44.877Z,19.85
2018-04-25T23:14:11.261Z,19.41
2018-04-25T23:16:37.647Z,19.50
2018-04-25T23:19:04.046Z,19.66
2018-04-25T23:21:30.468Z,19.60
2018-04-25T23:23:56.850Z,19.60
2018-04-25T23:26:23.259Z,19.57
2018-04-25T23:28:49.647Z,19.57
2018-04-25T23:31:16.098Z,19.61
2018-04-25T23:33:42.504Z,19.62
2018-04-25T23:36:08.937Z,19.57
2018-04-25T23:38:35.350Z,19.49
2018-04-25T23:41:01.729Z,19.50
2018-04-25T23:43:28.153Z,19.37
2018-04-25T23:45:54.574Z,19.44
2018-04-25T23:48:20.979Z,19.30
2018-04-25T23:50:47.400Z,19.34
2018-04-25T23:53:13.767Z,19.42
2018-04-25T23:55:40.127Z,19.37
2018-04-25T23:58:06.540Z,19.35
